createdAt,value
2022-08-28T00:02:23.826Z,61.80
2022-08-28T00:05:32.322Z,61.90
2022-08-28T00:08:37.701Z,62.00
2022-08-28T00:11:45.491Z,62.10
2022-08-28T00:14:50.500Z,62.20
2022-08-28T00:17:55.610Z,62.20
2022-08-28T00:21:01.777Z,62.30
2022-08-28T00:24:07.537Z,62.40
2022-08-28T00:27:27.563Z,62.40
2022-08-28T00:30:37.713Z,62.50
2022-08-28T00:33:43.367Z,62.60
2022-08-28T00:36:48.424Z,62.60
2022-08-28T00:39:53.854Z,62.70
2022-08-28T00:43:01.808Z,62.80
2022-08-28T00:46:09.303Z,63.00
2022-08-28T00:49:14.995Z,63.00
2022-08-28T00:52:21.601Z,63.10
2022-08-28T00:55:29.384Z,63.20
2022-08-28T00:58:37.566Z,63.30
2022-08-28T01:01:42.692Z,63.40
2022-08-28T01:04:48.002Z,63.30
2022-08-28T01:07:53.348Z,63.40
2022-08-28T01:11:00.233Z,63.50
2022-08-28T01:14:08.665Z,63.60
2022-08-28T01:17:14.976Z,63.70
2022-08-28T01:20:23.949Z,63.60
2022-08-28T01:23:47.803Z,63.70
2022-08-28T01:26:52.943Z,63.90
2022-08-28T01:29:58.078Z,63.80
2022-08-28T01:33:03.164Z,63.80
2022-08-28T01:36:08.607Z,63.90
2022-08-28T01:39:19.238Z,64.00
2022-08-28T01:42:26.076Z,64.10
2022-08-28T01:45:31.465Z,64.10
2022-08-28T01:48:39.373Z,64.10
2022-08-28T01:51:45.058Z,64.30
2022-08-28T01:54:52.548Z,64.30
2022-08-28T01:57:59.153Z,64.40
2022-08-28T02:01:04.109Z,64.40
2022-08-28T02:04:09.495Z,64.40
2022-08-28T02:07:15.038Z,64.50
2022-08-28T02:10:25.365Z,64.50
2022-08-28T02:13:30.368Z,64.60
2022-08-28T02:16:35.298Z,64.60
2022-08-28T02:19:40.261Z,64.60
2022-08-28T02:22:45.233Z,64.70
2022-08-28T02:25:52.795Z,64.80
2022-08-28T02:28:58.730Z,64.90
2022-08-28T02:32:05.939Z,64.90
2022-08-28T02:35:12.522Z,64.90
2022-08-28T02:38:17.872Z,65.00
2022-08-28T02:41:26.464Z,65.00
2022-08-28T02:44:31.429Z,65.10
2022-08-28T02:47:36.366Z,65.10
2022-08-28T02:50:41.273Z,65.20
2022-08-28T02:53:46.434Z,65.30
2022-08-28T02:56:54.409Z,65.20
2022-08-28T02:59:59.551Z,65.40
2022-08-28T03:03:05.357Z,65.40
2022-08-28T03:06:11.645Z,65.40
2022-08-28T03:09:16.573Z,65.40
2022-08-28T03:12:24.688Z,65.50
2022-08-28T03:15:29.834Z,65.60
2022-08-28T03:18:35.734Z,65.70
2022-08-28T03:21:41.319Z,65.60
2022-08-28T03:24:46.629Z,65.70
2022-08-28T03:27:54.432Z,65.70
2022-08-28T03:30:59.658Z,65.80
2022-08-28T03:34:05.481Z,65.80
2022-08-28T03:37:10.446Z,65.90
2022-08-28T03:40:16.503Z,66.00
2022-08-28T03:43:26.341Z,66.00
2022-08-28T03:46:34.966Z,66.10
2022-08-28T03:49:39.905Z,66.20
2022-08-28T03:52:44.923Z,66.10
2022-08-28T03:55:49.848Z,66.10
2022-08-28T03:59:00.272Z,66.10
2022-08-28T04:02:05.268Z,66.30
2022-08-28T04:05:11.152Z,66.30
2022-08-28T04:08:17.501Z,66.40
2022-08-28T04:11:22.512Z,66.40
2022-08-28T04:14:30.163Z,66.40
2022-08-28T04:17:35.127Z,66.50
2022-08-28T04:20:40.310Z,66.50
2022-08-28T04:23:46.422Z,66.50
2022-08-28T04:26:51.369Z,66.60
2022-08-28T04:29:59.247Z,66.70
2022-08-28T04:33:05.086Z,66.80
2022-08-28T04:36:14.414Z,66.70
2022-08-28T04:39:19.357Z,66.90
2022-08-28T04:42:24.346Z,66.80
2022-08-28T04:45:31.905Z,66.90
2022-08-28T04:48:37.137Z,67.00
2022-08-28T04:51:42.691Z,67.00
2022-08-28T04:54:47.654Z,67.00
2022-08-28T04:57:53.217Z,67.10
2022-08-28T05:01:01.155Z,67.10
2022-08-28T05:04:06.914Z,67.20
2022-08-28T05:07:11.890Z,67.80
2022-08-28T05:10:16.874Z,67.30
2022-08-28T05:13:21.971Z,67.30
2022-08-28T05:16:29.695Z,67.40
2022-08-28T05:19:35.969Z,67.40
2022-08-28T05:22:40.904Z,67.50
2022-08-28T05:25:47.596Z,67.50
2022-08-28T05:28:52.594Z,67.60
2022-08-28T05:32:00.126Z,67.60
2022-08-28T05:35:05.152Z,67.70
2022-08-28T05:38:10.758Z,67.70
2022-08-28T05:41:20.730Z,67.80
2022-08-28T05:44:25.740Z,67.80
2022-08-28T05:47:34.241Z,67.90
2022-08-28T05:50:44.519Z,68.00
2022-08-28T05:53:53.081Z,68.00
2022-08-28T05:56:58.102Z,68.10
2022-08-28T06:00:03.076Z,68.20
2022-08-28T06:03:11.918Z,68.20
2022-08-28T06:06:16.869Z,68.40
2022-08-28T06:09:28.806Z,68.40
2022-08-28T06:12:34.498Z,68.50
2022-08-28T06:15:44.903Z,68.60
2022-08-28T06:18:53.128Z,68.80
2022-08-28T06:21:59.934Z,68.90
2022-08-28T06:25:08.140Z,68.90
2022-08-28T06:28:13.297Z,69.00
2022-08-28T06:31:24.557Z,69.10
2022-08-28T06:34:33.672Z,69.20
2022-08-28T06:37:38.585Z,69.30
2022-08-28T06:40:44.885Z,69.30
2022-08-28T06:43:49.929Z,69.80
2022-08-28T06:46:57.277Z,69.40
2022-08-28T06:50:04.747Z,69.40
2022-08-28T06:53:10.165Z,69.30
2022-08-28T06:56:26.048Z,69.20
2022-08-28T06:59:31.649Z,69.10
2022-08-28T07:02:36.665Z,69.00
2022-08-28T07:05:44.266Z,69.00
2022-08-28T07:08:49.666Z,69.10
2022-08-28T07:11:55.072Z,69.10
2022-08-28T07:15:01.791Z,69.00
2022-08-28T07:18:07.919Z,68.90
2022-08-28T07:21:16.356Z,69.50
2022-08-28T07:24:21.941Z,68.70
2022-08-28T07:27:27.675Z,68.50
2022-08-28T07:30:32.625Z,68.50
2022-08-28T07:33:37.570Z,68.40
2022-08-28T07:36:46.126Z,68.20
2022-08-28T07:39:51.165Z,68.10
2022-08-28T07:43:08.810Z,67.90
2022-08-28T07:46:14.258Z,67.80
2022-08-28T07:49:19.690Z,67.60
2022-08-28T07:52:27.365Z,67.50
2022-08-28T07:55:33.182Z,67.20
2022-08-28T07:58:38.843Z,67.10
2022-08-28T08:01:46.942Z,66.90
2022-08-28T08:04:52.187Z,66.70
2022-08-28T08:07:59.829Z,66.70
2022-08-28T08:11:08.038Z,66.50
2022-08-28T08:14:16.914Z,66.50
2022-08-28T08:17:21.999Z,66.30
2022-08-28T08:20:27.061Z,66.00
2022-08-28T08:23:35.992Z,65.90
2022-08-28T08:26:46.919Z,65.70
2022-08-28T08:30:02.081Z,65.50
2022-08-28T08:33:07.190Z,65.30
2022-08-28T08:36:14.698Z,65.00
2022-08-28T08:39:22.337Z,64.70
2022-08-28T08:42:29.295Z,64.30
2022-08-28T08:45:36.869Z,64.10
2022-08-28T08:48:47.319Z,63.80
2022-08-28T08:52:01.469Z,63.60
2022-08-28T08:55:19.830Z,63.20
2022-08-28T08:58:33.057Z,63.30
2022-08-28T09:01:44.605Z,63.10
2022-08-28T09:04:57.662Z,62.90
2022-08-28T09:08:05.730Z,62.60
2022-08-28T09:11:27.254Z,62.20
2022-08-28T09:14:44.418Z,61.70
2022-08-28T09:17:52.815Z,61.30
2022-08-28T09:21:00.007Z,61.00
2022-08-28T09:24:10.968Z,60.60
2022-08-28T09:27:28.987Z,60.30
2022-08-28T09:30:35.160Z,59.70
2022-08-28T09:33:44.982Z,59.90
2022-08-28T09:36:49.998Z,59.60
2022-08-28T09:40:19.482Z,59.50
2022-08-28T09:43:26.924Z,59.10
2022-08-28T09:46:35.022Z,59.30
2022-08-28T09:49:40.061Z,59.20
2022-08-28T09:52:45.114Z,59.00
2022-08-28T09:56:00.280Z,58.80
2022-08-28T09:59:09.308Z,58.40
2022-08-28T10:02:25.805Z,58.40
2022-08-28T10:05:40.234Z,57.80
2022-08-28T10:08:56.886Z,57.70
2022-08-28T10:12:14.117Z,57.40
2022-08-28T10:15:24.770Z,57.30
2022-08-28T10:18:38.912Z,57.30
2022-08-28T10:21:47.773Z,57.30
2022-08-28T10:25:05.432Z,57.60
2022-08-28T10:28:36.179Z,57.40
2022-08-28T10:31:49.098Z,57.10
2022-08-28T10:35:03.522Z,57.20
2022-08-28T10:38:14.409Z,57.10
2022-08-28T10:41:24.638Z,57.10
2022-08-28T10:44:39.371Z,56.90
2022-08-28T10:47:49.801Z,56.70
2022-08-28T10:50:57.739Z,56.60
2022-08-28T10:54:28.344Z,56.30
2022-08-28T10:57:39.958Z,55.80
2022-08-28T11:00:49.550Z,55.90
2022-08-28T11:03:55.665Z,55.60
2022-08-28T11:07:04.852Z,55.60
2022-08-28T11:10:23.865Z,55.20
2022-08-28T11:13:55.708Z,54.70
2022-08-28T11:17:06.827Z,54.30
2022-08-28T11:20:18.306Z,54.50
2022-08-28T11:23:30.043Z,54.40
2022-08-28T11:26:43.325Z,54.30
2022-08-28T11:30:08.615Z,54.10
2022-08-28T11:33:41.774Z,53.90
2022-08-28T11:37:04.972Z,53.70
2022-08-28T11:40:43.830Z,53.50
2022-08-28T11:43:53.302Z,53.30
2022-08-28T11:47:18.427Z,53.30
2022-08-28T11:50:29.582Z,53.20
2022-08-28T11:53:47.318Z,52.90
2022-08-28T11:57:04.723Z,52.60
2022-08-28T12:00:22.304Z,52.60
2022-08-28T12:03:33.322Z,52.50
2022-08-28T12:07:17.422Z,52.40
2022-08-28T12:10:52.526Z,51.90
2022-08-28T12:13:57.654Z,51.90
2022-08-28T12:17:31.208Z,52.20
2022-08-28T12:20:59.806Z,51.70
2022-08-28T12:24:09.790Z,51.80
2022-08-28T12:27:16.453Z,51.80
2022-08-28T12:30:31.758Z,51.70
2022-08-28T12:33:49.469Z,51.40
2022-08-28T12:37:00.169Z,51.50
2022-08-28T12:40:18.749Z,51.40
2022-08-28T12:43:32.411Z,51.10
2022-08-28T12:46:41.006Z,51.00
2022-08-28T12:49:48.566Z,51.20
2022-08-28T12:52:56.165Z,51.10
2022-08-28T12:56:02.198Z,51.10
2022-08-28T12:59:27.524Z,51.00
2022-08-28T13:02:36.198Z,50.70
2022-08-28T13:05:44.167Z,50.90
2022-08-28T13:08:51.713Z,50.90
2022-08-28T13:11:56.885Z,50.70
2022-08-28T13:15:02.218Z,50.70
2022-08-28T13:18:08.394Z,50.70
2022-08-28T13:21:36.172Z,50.50
2022-08-28T13:24:48.353Z,50.20
2022-08-28T13:28:03.031Z,50.40
2022-08-28T13:31:23.214Z,50.20
2022-08-28T13:34:29.766Z,50.20
2022-08-28T13:37:48.175Z,50.20
2022-08-28T13:40:59.436Z,49.70
2022-08-28T13:44:04.958Z,49.90
2022-08-28T13:47:10.138Z,49.90
2022-08-28T13:50:15.173Z,49.90
2022-08-28T13:53:23.690Z,49.90
2022-08-28T13:56:28.916Z,49.80
2022-08-28T13:59:34.565Z,49.90
2022-08-28T14:02:54.699Z,49.80
2022-08-28T14:05:59.958Z,49.60
2022-08-28T14:09:12.997Z,49.60
2022-08-28T14:12:18.141Z,49.40
2022-08-28T14:15:23.223Z,49.50
2022-08-28T14:18:29.174Z,49.50
2022-08-28T14:21:34.891Z,49.40
2022-08-28T14:24:42.702Z,49.40
2022-08-28T14:27:47.917Z,49.10
2022-08-28T14:30:54.750Z,49.10
2022-08-28T14:34:00.645Z,48.90
2022-08-28T14:37:06.429Z,48.90
2022-08-28T14:40:15.668Z,48.80
2022-08-28T14:43:21.353Z,48.70
2022-08-28T14:46:31.128Z,48.80
2022-08-28T14:49:36.071Z,48.70
2022-08-28T14:52:41.000Z,48.80
2022-08-28T14:55:51.478Z,49.40
2022-08-28T14:58:56.410Z,48.80
2022-08-28T15:02:03.053Z,48.80
2022-08-28T15:05:08.947Z,48.70
2022-08-28T15:08:18.877Z,48.70
2022-08-28T15:11:28.850Z,48.60
2022-08-28T15:14:34.189Z,48.60
2022-08-28T15:17:39.175Z,48.60
2022-08-28T15:20:46.368Z,48.60
2022-08-28T15:23:53.042Z,48.50
2022-08-28T15:27:01.462Z,48.70
2022-08-28T15:30:07.465Z,48.70
2022-08-28T15:33:12.592Z,48.70
2022-08-28T15:36:17.818Z,48.70
2022-08-28T15:39:35.323Z,49.30
2022-08-28T15:42:45.957Z,48.70
2022-08-28T15:45:51.343Z,48.70
2022-08-28T15:48:58.020Z,48.80
2022-08-28T15:52:03.074Z,48.80
2022-08-28T15:55:10.251Z,48.80
2022-08-28T15:58:18.524Z,48.90
2022-08-28T16:01:24.156Z,49.00
2022-08-28T16:04:29.768Z,49.00
2022-08-28T16:07:34.704Z,49.00
2022-08-28T16:10:40.076Z,49.10
2022-08-28T16:13:47.883Z,49.20
2022-08-28T16:16:52.829Z,49.20
2022-08-28T16:19:57.973Z,49.30
2022-08-28T16:23:02.969Z,49.40
2022-08-28T16:26:09.338Z,49.50
2022-08-28T16:29:17.708Z,49.60
2022-08-28T16:32:23.434Z,49.70
2022-08-28T16:35:28.442Z,49.80
2022-08-28T16:38:34.470Z,50.00
2022-08-28T16:41:39.705Z,50.10
2022-08-28T16:44:47.235Z,50.20
2022-08-28T16:47:52.637Z,50.30
2022-08-28T16:50:57.575Z,50.50
2022-08-28T16:54:02.493Z,50.40
2022-08-28T16:57:07.646Z,50.50
2022-08-28T17:00:19.422Z,50.60
2022-08-28T17:03:26.580Z,50.70
2022-08-28T17:06:35.536Z,50.80
2022-08-28T17:09:40.632Z,50.90
2022-08-28T17:12:45.822Z,51.00
2022-08-28T17:15:53.519Z,51.10
2022-08-28T17:18:58.695Z,51.20
2022-08-28T17:22:16.141Z,51.40
2022-08-28T17:25:21.054Z,51.60
2022-08-28T17:28:26.025Z,51.60
2022-08-28T17:31:33.718Z,51.70
2022-08-28T17:34:39.058Z,51.90
2022-08-28T17:37:44.921Z,52.00
2022-08-28T17:40:49.857Z,52.10
2022-08-28T17:43:54.772Z,52.30
2022-08-28T17:47:02.319Z,52.40
2022-08-28T17:50:08.503Z,52.50
2022-08-28T17:53:13.457Z,52.60
2022-08-28T17:56:18.467Z,52.80
2022-08-28T17:59:27.863Z,52.90
2022-08-28T18:02:35.403Z,53.00
2022-08-28T18:05:41.315Z,53.10
2022-08-28T18:08:47.805Z,53.30
2022-08-28T18:11:52.843Z,53.90
2022-08-28T18:14:57.837Z,53.40
2022-08-28T18:18:05.550Z,53.50
2022-08-28T18:21:12.017Z,53.60
2022-08-28T18:24:17.306Z,53.70
2022-08-28T18:27:23.113Z,53.70
2022-08-28T18:30:28.186Z,53.80
2022-08-28T18:33:37.207Z,53.80
2022-08-28T18:36:42.697Z,54.00
2022-08-28T18:39:47.709Z,54.00
2022-08-28T18:42:56.607Z,54.10
2022-08-28T18:46:02.318Z,54.20
2022-08-28T18:49:10.022Z,54.20
2022-08-28T18:52:15.171Z,54.30
2022-08-28T18:55:20.743Z,54.40
2022-08-28T18:58:27.408Z,54.40
2022-08-28T19:01:32.447Z,54.50
2022-08-28T19:04:41.560Z,54.60
2022-08-28T19:07:46.825Z,54.70
2022-08-28T19:10:52.105Z,54.70
2022-08-28T19:13:57.134Z,54.80
2022-08-28T19:17:02.417Z,54.90
2022-08-28T19:20:13.257Z,55.00
2022-08-28T19:23:18.873Z,55.20
2022-08-28T19:26:24.593Z,55.20
2022-08-28T19:29:29.656Z,55.30
2022-08-28T19:32:34.654Z,55.40
2022-08-28T19:35:42.277Z,55.50
2022-08-28T19:38:47.594Z,55.50
2022-08-28T19:41:53.029Z,55.60
2022-08-28T19:44:59.783Z,55.70
2022-08-28T19:48:05.763Z,55.90
2022-08-28T19:51:22.920Z,55.90
2022-08-28T19:54:28.889Z,56.00
2022-08-28T19:57:33.980Z,56.10
2022-08-28T20:00:39.109Z,56.20
2022-08-28T20:03:44.766Z,56.30
2022-08-28T20:06:52.530Z,56.30
2022-08-28T20:09:57.634Z,56.50
2022-08-28T20:13:03.049Z,56.50
2022-08-28T20:16:08.618Z,56.60
2022-08-28T20:19:15.430Z,56.70
2022-08-28T20:22:22.976Z,56.80
2022-08-28T20:25:27.947Z,56.90
2022-08-28T20:28:33.365Z,57.00
2022-08-28T20:31:40.481Z,57.00
2022-08-28T20:34:45.629Z,57.10
2022-08-28T20:37:53.234Z,57.20
2022-08-28T20:41:05.987Z,57.40
2022-08-28T20:44:12.940Z,57.50
2022-08-28T20:47:18.839Z,58.10
2022-08-28T20:50:24.520Z,57.50
2022-08-28T20:53:37.894Z,57.70
2022-08-28T20:56:44.055Z,57.80
2022-08-28T20:59:50.183Z,57.80
2022-08-28T21:02:55.170Z,57.90
2022-08-28T21:06:00.207Z,58.00
2022-08-28T21:09:07.901Z,58.00
2022-08-28T21:12:13.066Z,58.20
2022-08-28T21:15:18.420Z,58.30
2022-08-28T21:18:23.442Z,58.30
2022-08-28T21:21:28.936Z,58.40
2022-08-28T21:24:36.474Z,58.40
2022-08-28T21:27:42.081Z,58.60
2022-08-28T21:30:47.088Z,58.60
2022-08-28T21:33:52.099Z,58.60
2022-08-28T21:36:57.194Z,58.70
2022-08-28T21:40:06.225Z,58.80
2022-08-28T21:43:11.270Z,58.80
2022-08-28T21:46:18.654Z,58.90
2022-08-28T21:49:24.158Z,58.90
2022-08-28T21:52:32.045Z,59.00
2022-08-28T21:55:39.622Z,59.20
2022-08-28T21:58:44.606Z,59.10
2022-08-28T22:01:49.611Z,59.20
2022-08-28T22:04:54.890Z,59.30
2022-08-28T22:07:59.901Z,59.40
2022-08-28T22:11:07.580Z,59.40
2022-08-28T22:14:13.998Z,59.60
2022-08-28T22:17:19.237Z,59.60
2022-08-28T22:20:24.281Z,59.70
2022-08-28T22:23:28.591Z,59.80
2022-08-28T22:26:36.273Z,59.90
2022-08-28T22:29:41.335Z,60.00
2022-08-28T22:32:46.298Z,60.00
2022-08-28T22:35:52.070Z,60.10
2022-08-28T22:38:57.046Z,60.20
2022-08-28T22:42:04.686Z,60.30
2022-08-28T22:45:10.432Z,60.40
2022-08-28T22:48:15.622Z,60.40
2022-08-28T22:51:22.073Z,60.50
2022-08-28T22:54:27.125Z,60.60
2022-08-28T22:57:34.675Z,60.70
2022-08-28T23:00:41.070Z,60.80
2022-08-28T23:03:46.505Z,60.90
2022-08-28T23:06:51.526Z,61.00
2022-08-28T23:09:56.802Z,61.10
2022-08-28T23:13:04.321Z,61.10
2022-08-28T23:16:10.106Z,61.30
2022-08-28T23:19:15.129Z,61.40
2022-08-28T23:22:20.843Z,61.40
2022-08-28T23:25:27.095Z,61.50
2022-08-28T23:28:34.619Z,61.60
2022-08-28T23:31:40.237Z,61.70
2022-08-28T23:34:45.311Z,61.80
2022-08-28T23:37:51.934Z,61.80
2022-08-28T23:40:57.414Z,61.90
2022-08-28T23:44:08.521Z,61.90
2022-08-28T23:47:14.094Z,62.00
2022-08-28T23:50:22.361Z,62.10
2022-08-28T23:53:27.354Z,62.10
2022-08-28T23:56:32.857Z,62.10
2022-08-28T23:59:40.439Z,62.20
